Time;durP1;ratioP1;P1;durP2;ratioP2;P2;SDS_P1;SDS_P2;PMS_P1;PMS_P2;Temp;Humidity;BMP_temperature;BMP_pressure;BME280_temperature;BME280_humidity;BME280_pressure;Samples;Min_cycle;Max_cycle;Signal;HPM_P1;HPM_P2
2020/12/01 00:02:07;;;;;;;15.70;13.25;;;6.30;99.90;;;;;;5078792;28;20529;-76
2020/12/01 00:04:33;;;;;;;15.77;14.02;;;6.30;99.90;;;;;;5082418;28;20196;-76
2020/12/01 00:06:59;;;;;;;13.55;12.15;;;6.30;99.90;;;;;;5085046;28;20219;-77
2020/12/01 00:09:25;;;;;;;14.30;12.80;;;6.30;99.90;;;;;;5084976;28;20282;-77
2020/12/01 00:11:52;;;;;;;14.57;12.13;;;6.30;99.90;;;;;;5083427;28;20591;-76
2020/12/01 00:14:18;;;;;;;14.02;12.57;;;6.30;99.90;;;;;;5083267;28;20206;-77
2020/12/01 00:16:46;;;;;;;14.10;12.77;;;6.30;99.90;;;;;;5079231;28;20235;-75
2020/12/01 00:19:12;;;;;;;15.02;13.00;;;6.30;99.90;;;;;;5081328;28;20200;-78
2020/12/01 00:21:39;;;;;;;14.25;12.27;;;6.30;99.90;;;;;;5082047;28;20191;-78
2020/12/01 00:24:05;;;;;;;14.38;11.68;;;6.30;99.90;;;;;;5075672;28;20193;-76
2020/12/01 00:26:32;;;;;;;14.50;13.00;;;6.30;99.90;;;;;;5070807;28;20189;-77
2020/12/01 00:28:58;;;;;;;13.25;11.88;;;6.30;99.90;;;;;;5079674;28;20239;-76
2020/12/01 00:31:25;;;;;;;13.38;11.65;;;6.20;99.90;;;;;;5082507;28;20220;-76
2020/12/01 00:33:52;;;;;;;16.67;13.57;;;6.20;99.90;;;;;;5080388;28;20203;-76
2020/12/01 00:36:18;;;;;;;13.35;11.95;;;6.30;99.90;;;;;;5077794;28;20201;-76
2020/12/01 00:38:45;;;;;;;14.55;11.88;;;6.20;99.90;;;;;;5083146;28;20207;-76
2020/12/01 00:41:14;;;;;;;14.27;11.63;;;6.30;99.90;;;;;;5081542;28;20211;-78
2020/12/01 00:43:40;;;;;;;14.95;12.25;;;6.30;99.90;;;;;;5085261;28;20254;-78
2020/12/01 00:46:06;;;;;;;16.02;12.38;;;6.30;99.90;;;;;;5073366;28;20279;-76
2020/12/01 00:48:33;;;;;;;15.15;12.25;;;6.30;99.90;;;;;;5074485;28;20201;-76
2020/12/01 00:51:00;;;;;;;13.52;11.27;;;6.30;99.90;;;;;;5080882;28;20224;-78
2020/12/01 00:53:26;;;;;;;13.70;12.00;;;6.30;99.90;;;;;;5077054;28;20192;-75
2020/12/01 00:55:52;;;;;;;16.15;12.60;;;6.30;99.90;;;;;;5077945;28;20287;-76
2020/12/01 00:58:19;;;;;;;14.65;13.05;;;6.30;99.90;;;;;;5075014;28;20207;-76
2020/12/01 01:00:45;;;;;;;13.13;11.77;;;6.30;99.90;;;;;;5075493;28;20196;-77
2020/12/01 01:03:11;;;;;;;15.30;12.48;;;6.30;99.90;;;;;;5080684;28;20200;-78
2020/12/01 01:05:38;;;;;;;15.68;14.05;;;6.30;99.90;;;;;;5082999;28;20286;-76
2020/12/01 01:08:05;;;;;;;16.35;13.45;;;6.40;99.90;;;;;;5081310;28;20200;-78
2020/12/01 01:10:33;;;;;;;17.63;14.75;;;6.40;99.90;;;;;;5082508;28;20238;-76
2020/12/01 01:13:00;;;;;;;17.25;15.25;;;6.40;99.90;;;;;;5080130;28;20218;-77
2020/12/01 01:15:28;;;;;;;19.35;14.48;;;6.40;99.90;;;;;;5079886;28;20196;-79
2020/12/01 01:17:54;;;;;;;17.63;14.35;;;6.40;99.90;;;;;;5081358;28;20200;-76
2020/12/01 01:20:21;;;;;;;17.50;15.30;;;6.40;99.90;;;;;;5084801;28;20193;-77
2020/12/01 01:22:47;;;;;;;17.77;14.80;;;6.40;99.90;;;;;;5072187;28;20571;-76
2020/12/01 01:25:14;;;;;;;21.13;15.40;;;6.40;99.90;;;;;;5080355;28;20192;-77
2020/12/01 01:27:41;;;;;;;18.73;16.15;;;6.50;99.90;;;;;;5079920;28;20698;-80
2020/12/01 01:30:08;;;;;;;18.02;15.32;;;6.40;99.90;;;;;;5078709;28;20227;-76
2020/12/01 01:32:35;;;;;;;23.63;16.60;;;6.50;99.90;;;;;;5081595;28;20558;-78
2020/12/01 01:35:01;;;;;;;18.45;14.35;;;6.50;99.90;;;;;;5079455;28;20254;-78
2020/12/01 01:37:27;;;;;;;20.55;16.55;;;6.50;99.90;;;;;;5086914;28;20212;-80
2020/12/01 01:39:54;;;;;;;20.13;15.98;;;6.50;99.90;;;;;;5082533;28;20200;-76
2020/12/01 01:42:21;;;;;;;20.10;15.82;;;6.50;99.90;;;;;;5086715;28;20534;-77
2020/12/01 01:44:47;;;;;;;19.52;16.80;;;6.50;99.90;;;;;;5083868;28;20191;-76
2020/12/01 01:47:19;;;;;;;20.70;16.20;;;6.60;99.90;;;;;;5079385;28;20195;-77
2020/12/01 01:49:49;;;;;;;19.58;17.33;;;6.60;99.90;;;;;;5082312;28;20283;-79
2020/12/01 01:52:20;;;;;;;18.48;15.98;;;6.60;99.90;;;;;;5087470;28;20219;-76
2020/12/01 01:54:50;;;;;;;19.45;14.93;;;6.60;99.90;;;;;;5085720;28;20204;-76
2020/12/01 01:57:17;;;;;;;18.90;15.32;;;6.60;99.90;;;;;;5082473;28;20203;-76
2020/12/01 01:59:46;;;;;;;16.80;15.05;;;6.60;99.90;;;;;;5085450;28;20548;-76
2020/12/01 02:02:13;;;;;;;19.83;16.27;;;6.60;99.90;;;;;;5083943;28;20212;-76
2020/12/01 02:04:39;;;;;;;21.55;16.25;;;6.60;99.90;;;;;;5079752;28;20207;-77
2020/12/01 02:07:06;;;;;;;20.92;17.08;;;6.60;99.90;;;;;;5095876;28;20208;-76
2020/12/01 02:09:35;;;;;;;23.00;17.90;;;6.70;99.90;;;;;;5086740;28;20206;-79
2020/12/01 02:12:04;;;;;;;22.77;18.98;;;6.70;99.90;;;;;;5081561;28;20227;-76
2020/12/01 02:14:34;;;;;;;19.80;17.27;;;6.70;99.90;;;;;;5083591;28;20214;-78
2020/12/01 02:17:15;;;;;;;24.70;17.15;;;6.70;99.90;;;;;;5079970;28;20218;-76
2020/12/01 02:19:42;;;;;;;22.52;17.50;;;6.70;99.90;;;;;;5088710;28;20577;-76
2020/12/01 02:22:13;;;;;;;21.42;17.38;;;6.70;99.90;;;;;;5087913;28;20215;-78
2020/12/01 02:24:39;;;;;;;25.05;17.85;;;6.70;99.90;;;;;;5079560;28;20196;-76
2020/12/01 02:27:07;;;;;;;26.48;18.08;;;6.80;99.90;;;;;;5083352;28;20254;-77
2020/12/01 02:29:36;;;;;;;20.40;16.70;;;6.80;99.90;;;;;;5080738;28;20237;-76
2020/12/01 02:32:03;;;;;;;21.67;17.92;;;6.80;99.90;;;;;;5087728;28;20224;-77
2020/12/01 02:34:34;;;;;;;22.30;17.17;;;6.90;99.90;;;;;;5089378;28;20659;-77
2020/12/01 02:37:01;;;;;;;26.02;18.70;;;6.90;99.90;;;;;;5085246;28;20223;-76
2020/12/01 02:39:28;;;;;;;18.25;15.88;;;6.90;99.90;;;;;;5085163;28;20578;-77
2020/12/01 02:41:56;;;;;;;18.15;15.70;;;6.90;99.90;;;;;;5077380;28;20196;-76
2020/12/01 02:44:24;;;;;;;18.27;15.02;;;6.90;99.90;;;;;;5086117;28;20287;-77
2020/12/01 02:46:50;;;;;;;17.25;14.27;;;6.90;99.90;;;;;;5084712;28;20196;-76
2020/12/01 02:49:16;;;;;;;22.42;13.35;;;7.00;99.90;;;;;;5082630;28;20200;-76
2020/12/01 02:51:43;;;;;;;17.08;14.35;;;7.00;99.90;;;;;;5077354;28;20227;-77
2020/12/01 02:54:09;;;;;;;15.80;13.77;;;7.00;99.90;;;;;;5083267;28;20203;-75
2020/12/01 02:56:36;;;;;;;17.50;13.80;;;7.00;99.90;;;;;;5088669;28;20195;-78
2020/12/01 02:59:02;;;;;;;17.65;15.00;;;7.00;99.90;;;;;;5081009;28;20254;-76
2020/12/01 03:01:29;;;;;;;18.27;13.50;;;7.10;99.90;;;;;;5082032;28;20206;-78
2020/12/01 03:03:56;;;;;;;17.50;13.90;;;7.10;99.90;;;;;;5078203;28;20216;-75
2020/12/01 03:06:22;;;;;;;20.63;14.82;;;7.10;99.90;;;;;;5082882;28;20531;-77
2020/12/01 03:08:49;;;;;;;16.13;13.95;;;7.10;99.90;;;;;;5084662;28;20295;-78
2020/12/01 03:11:17;;;;;;;15.68;13.73;;;7.10;99.90;;;;;;5082952;28;20224;-76
2020/12/01 03:13:44;;;;;;;15.25;13.57;;;7.10;99.90;;;;;;5084447;28;20196;-76
2020/12/01 03:16:11;;;;;;;14.45;12.95;;;7.10;99.90;;;;;;5078036;28;20291;-76
2020/12/01 03:18:40;;;;;;;13.07;11.57;;;7.10;99.90;;;;;;5082544;28;20196;-76
2020/12/01 03:21:07;;;;;;;20.52;11.35;;;7.10;99.90;;;;;;5080735;28;20200;-78
2020/12/01 03:23:33;;;;;;;15.25;10.68;;;7.10;99.90;;;;;;5081329;28;20463;-76
2020/12/01 03:26:00;;;;;;;13.02;8.73;;;7.10;99.90;;;;;;5081903;28;20677;-76
2020/12/01 03:28:27;;;;;;;11.52;9.90;;;7.10;99.90;;;;;;5085343;28;20311;-77
2020/12/01 03:30:53;;;;;;;10.68;9.15;;;7.10;99.90;;;;;;5077595;28;20238;-76
2020/12/01 03:33:20;;;;;;;9.60;8.70;;;7.10;99.90;;;;;;5082362;28;20731;-76
2020/12/01 03:35:47;;;;;;;11.60;7.28;;;7.20;99.90;;;;;;5085905;28;20678;-76
2020/12/01 03:38:14;;;;;;;7.43;6.40;;;7.20;99.90;;;;;;5084709;28;20196;-76
2020/12/01 03:40:40;;;;;;;12.45;7.40;;;7.20;99.90;;;;;;5082404;28;20200;-76
2020/12/01 03:43:07;;;;;;;10.65;6.15;;;7.20;99.90;;;;;;5076754;28;20276;-77
2020/12/01 03:45:34;;;;;;;5.63;5.13;;;7.20;99.90;;;;;;5081270;28;20200;-77
2020/12/01 03:48:00;;;;;;;6.15;5.32;;;7.20;99.90;;;;;;5081430;28;20200;-76
2020/12/01 03:50:28;;;;;;;6.82;6.07;;;7.20;99.90;;;;;;5086888;28;20672;-76
2020/12/01 03:52:55;;;;;;;7.05;6.32;;;7.20;99.90;;;;;;5081381;28;20209;-76
2020/12/01 03:55:23;;;;;;;11.90;5.90;;;7.20;99.90;;;;;;5078863;28;20371;-77
2020/12/01 03:57:50;;;;;;;10.40;6.03;;;7.20;99.90;;;;;;5080288;28;20195;-74
2020/12/01 04:00:19;;;;;;;10.18;6.47;;;7.20;99.90;;;;;;5081026;28;20606;-74
2020/12/01 04:02:46;;;;;;;11.18;7.53;;;7.30;99.90;;;;;;5084476;28;20210;-75
2020/12/01 04:05:14;;;;;;;16.15;7.65;;;7.30;99.90;;;;;;5082654;28;20203;-75
2020/12/01 04:07:41;;;;;;;10.13;8.00;;;7.30;99.90;;;;;;5080894;28;20620;-75
2020/12/01 04:10:10;;;;;;;9.15;7.60;;;7.30;99.90;;;;;;5078695;28;20200;-75
2020/12/01 04:12:36;;;;;;;16.85;7.25;;;7.30;99.90;;;;;;5081938;28;20225;-75
2020/12/01 04:15:03;;;;;;;11.55;8.40;;;7.30;99.90;;;;;;5083470;28;20226;-74
2020/12/01 04:17:30;;;;;;;9.82;7.75;;;7.40;99.90;;;;;;5087027;28;20204;-75
2020/12/01 04:19:57;;;;;;;12.55;9.48;;;7.40;99.90;;;;;;5081259;28;20210;-77
2020/12/01 04:22:23;;;;;;;13.95;10.18;;;7.40;99.90;;;;;;5077701;28;20286;-78
2020/12/01 04:24:49;;;;;;;17.02;10.30;;;7.40;99.90;;;;;;5079601;28;20203;-75
2020/12/01 04:27:17;;;;;;;14.52;11.30;;;7.40;99.90;;;;;;5074344;28;20204;-78
2020/12/01 04:29:44;;;;;;;14.80;11.05;;;7.40;99.90;;;;;;5079175;28;21178;-75
2020/12/01 04:32:11;;;;;;;10.82;9.65;;;7.40;99.90;;;;;;5070512;28;20310;-76
2020/12/01 04:34:37;;;;;;;21.50;10.90;;;7.40;99.90;;;;;;5083302;28;20230;-76
2020/12/01 04:37:05;;;;;;;12.00;10.00;;;7.40;99.90;;;;;;5078576;28;20214;-76
2020/12/01 04:39:31;;;;;;;14.68;10.23;;;7.40;99.90;;;;;;5080350;28;20200;-76
2020/12/01 04:41:58;;;;;;;14.77;10.80;;;7.40;99.90;;;;;;5084567;28;20196;-75
2020/12/01 04:44:30;;;;;;;11.98;9.93;;;7.40;99.90;;;;;;5080738;28;20197;-76
2020/12/01 04:47:00;;;;;;;14.00;10.85;;;7.40;99.90;;;;;;5081185;28;20200;-76
2020/12/01 04:49:30;;;;;;;9.48;8.43;;;7.40;99.90;;;;;;5083656;28;20230;-75
2020/12/01 04:52:19;;;;;;;15.20;9.30;;;7.50;99.90;;;;;;5080557;28;20215;-76
2020/12/01 04:55:07;;;;;;;15.15;10.23;;;7.40;99.90;;;;;;5079532;28;20192;-76
2020/12/01 04:57:47;;;;;;;11.23;8.70;;;7.50;99.90;;;;;;5081760;28;20199;-76
2020/12/01 05:00:26;;;;;;;12.77;10.15;;;7.50;99.90;;;;;;5075415;28;20204;-76
2020/12/01 05:03:22;;;;;;;17.77;10.77;;;7.40;99.90;;;;;;5075110;28;20240;-76
2020/12/01 05:08:52;;;;;;;14.40;10.52;;;7.50;99.90;;;;;;5079776;28;20205;-76
2020/12/01 05:11:24;;;;;;;11.70;9.32;;;7.40;99.90;;;;;;5082384;28;20310;-76
2020/12/01 05:13:58;;;;;;;16.27;9.98;;;7.40;99.90;;;;;;5086651;28;20203;-76
2020/12/01 05:16:44;;;;;;;17.27;9.45;;;7.40;99.90;;;;;;5080350;28;20199;-78
2020/12/01 05:19:34;;;;;;;15.27;10.02;;;7.40;99.90;;;;;;5081368;28;20631;-75
2020/12/01 05:22:00;;;;;;;13.88;9.73;;;7.40;99.90;;;;;;5088934;28;20212;-76
2020/12/01 05:24:36;;;;;;;16.65;9.50;;;7.40;99.90;;;;;;5081896;28;20316;-76
2020/12/01 05:27:03;;;;;;;17.83;11.85;;;7.40;99.90;;;;;;5082159;28;20200;-75
2020/12/01 05:29:29;;;;;;;15.05;10.27;;;7.40;99.90;;;;;;5080340;28;20293;-75
2020/12/01 05:31:57;;;;;;;15.20;9.13;;;7.40;99.90;;;;;;5084265;28;20233;-75
2020/12/01 05:34:23;;;;;;;15.38;10.13;;;7.40;99.90;;;;;;5086164;28;20795;-75
2020/12/01 05:36:52;;;;;;;12.02;8.43;;;7.40;99.90;;;;;;5083911;28;20200;-76
2020/12/01 05:39:21;;;;;;;12.35;9.57;;;7.40;99.90;;;;;;5081779;28;20249;-76
2020/12/01 05:42:00;;;;;;;16.75;8.73;;;7.40;99.90;;;;;;5083235;28;20210;-78
2020/12/01 05:44:29;;;;;;;15.15;8.25;;;7.40;99.90;;;;;;5081824;28;20196;-76
2020/12/01 05:47:02;;;;;;;11.50;7.70;;;7.40;99.90;;;;;;5087474;28;20198;-75
2020/12/01 05:49:36;;;;;;;8.20;7.10;;;7.40;99.90;;;;;;5084670;28;20666;-76
2020/12/01 05:52:05;;;;;;;9.23;8.15;;;7.40;99.90;;;;;;5083673;28;20228;-78
2020/12/01 05:54:37;;;;;;;17.25;9.23;;;7.30;99.90;;;;;;5084873;28;20192;-78
2020/12/01 05:57:16;;;;;;;13.10;8.30;;;7.30;99.90;;;;;;5085921;28;20206;-75
2020/12/01 05:59:52;;;;;;;13.65;8.00;;;7.30;99.90;;;;;;5079141;28;20200;-76
2020/12/01 06:02:27;;;;;;;18.38;10.13;;;7.30;99.90;;;;;;5078196;28;20249;-75
2020/12/01 06:04:55;;;;;;;17.67;8.70;;;7.30;99.90;;;;;;5081190;28;20331;-75
2020/12/01 06:07:26;;;;;;;9.90;8.07;;;7.30;99.90;;;;;;5080140;28;20196;-75
2020/12/01 06:10:16;;;;;;;18.77;9.48;;;7.30;99.90;;;;;;5086305;28;20208;-78
2020/12/01 06:13:02;;;;;;;14.18;9.27;;;7.30;99.90;;;;;;5082484;28;20250;-76
2020/12/01 06:15:29;;;;;;;15.10;8.73;;;7.40;99.90;;;;;;5078307;28;20208;-73
2020/12/01 06:18:05;;;;;;;11.65;9.85;;;7.40;99.90;;;;;;5078266;28;20201;-75
2020/12/01 06:20:35;;;;;;;17.10;9.15;;;7.40;99.90;;;;;;5081341;28;20257;-78
2020/12/01 06:23:40;;;;;;;20.42;10.52;;;7.40;99.90;;;;;;5080737;28;20200;-75
2020/12/01 06:26:32;;;;;;;18.58;9.77;;;7.40;99.90;;;;;;5076646;28;20701;-75
2020/12/01 06:29:40;;;;;;;10.65;9.55;;;7.40;99.90;;;;;;5081307;28;20232;-78
2020/12/01 06:32:36;;;;;;;25.40;11.13;;;7.50;99.90;;;;;;5061716;28;20250;-76
2020/12/01 06:35:49;;;;;;;16.77;11.23;;;7.50;99.90;;;;;;5071422;28;20197;-75
2020/12/01 06:38:27;;;;;;;20.45;10.77;;;7.50;99.90;;;;;;5040006;28;20196;-75
2020/12/01 06:41:01;;;;;;;19.63;10.18;;;7.50;99.90;;;;;;5084181;28;20199;-75
2020/12/01 06:43:34;;;;;;;16.23;10.07;;;7.50;99.90;;;;;;5074619;28;20295;-76
2020/12/01 06:46:01;;;;;;;20.85;9.80;;;7.50;99.90;;;;;;5071560;28;20330;-76
2020/12/01 06:48:32;;;;;;;22.48;10.80;;;7.60;99.90;;;;;;5070505;28;20556;-75
2020/12/01 06:51:02;;;;;;;23.90;10.80;;;7.60;99.90;;;;;;5073770;28;20242;-78
2020/12/01 06:53:32;;;;;;;25.27;10.52;;;7.60;99.90;;;;;;5077895;28;20931;-75
2020/12/01 06:55:59;;;;;;;14.52;9.63;;;7.60;99.90;;;;;;5075262;28;20794;-75
2020/12/01 06:58:36;;;;;;;11.88;8.70;;;7.60;99.90;;;;;;5077310;28;20553;-77
2020/12/01 07:01:08;;;;;;;21.77;10.25;;;7.60;99.90;;;;;;5075708;28;20199;-76
2020/12/01 07:03:35;;;;;;;24.80;11.00;;;7.70;99.90;;;;;;5076642;28;20192;-78
2020/12/01 07:06:21;;;;;;;25.33;11.07;;;7.70;99.90;;;;;;5072769;28;20215;-76
2020/12/01 07:08:48;;;;;;;17.70;10.18;;;7.70;99.90;;;;;;5069364;28;20961;-78
2020/12/01 07:11:26;;;;;;;28.02;11.57;;;7.70;99.90;;;;;;5074905;28;20216;-75
2020/12/01 07:13:58;;;;;;;16.05;10.30;;;7.70;99.90;;;;;;5076576;28;20196;-75
2020/12/01 07:16:30;;;;;;;25.55;10.30;;;7.70;99.90;;;;;;5077869;28;20197;-75
2020/12/01 07:19:02;;;;;;;19.67;12.23;;;7.70;99.90;;;;;;5076522;28;20199;-75
2020/12/01 07:21:45;;;;;;;19.92;10.60;;;7.70;99.90;;;;;;5073161;28;20197;-75
2020/12/01 07:24:22;;;;;;;20.02;12.27;;;7.70;99.90;;;;;;5071730;28;20204;-75
2020/12/01 07:26:56;;;;;;;17.35;11.27;;;7.80;99.90;;;;;;5073449;28;20200;-75
2020/12/01 07:29:52;;;;;;;17.20;11.32;;;7.80;99.90;;;;;;5071609;28;20227;-75
2020/12/01 07:32:21;;;;;;;21.38;10.40;;;7.80;99.90;;;;;;5079073;28;20224;-75
2020/12/01 07:34:50;;;;;;;16.42;10.48;;;7.80;99.90;;;;;;5076626;28;20764;-77
2020/12/01 07:37:33;;;;;;;18.15;9.90;;;7.80;99.90;;;;;;5075044;28;20204;-76
2020/12/01 07:40:01;;;;;;;21.33;10.98;;;7.80;99.90;;;;;;5075871;28;20224;-75
2020/12/01 07:42:30;;;;;;;24.45;9.88;;;7.80;99.90;;;;;;5076619;28;20206;-76
2020/12/01 07:44:56;;;;;;;22.67;10.63;;;7.80;99.90;;;;;;5078393;28;20202;-76
2020/12/01 07:47:25;;;;;;;13.55;9.25;;;7.80;99.90;;;;;;5071607;28;20196;-78
2020/12/01 07:49:59;;;;;;;17.80;10.30;;;7.80;99.90;;;;;;5073850;28;20548;-76
2020/12/01 07:52:33;;;;;;;15.40;10.05;;;7.80;99.90;;;;;;5078051;28;20233;-76
2020/12/01 07:55:04;;;;;;;19.52;10.70;;;7.70;99.90;;;;;;5081266;28;20203;-75
2020/12/01 07:57:31;;;;;;;17.65;10.75;;;7.80;99.90;;;;;;5071477;28;20290;-75
2020/12/01 07:59:59;;;;;;;14.07;9.98;;;7.80;99.90;;;;;;5078540;28;20212;-76
2020/12/01 08:02:27;;;;;;;17.30;9.77;;;7.80;99.90;;;;;;5078528;28;20208;-75
2020/12/01 08:05:02;;;;;;;14.98;9.75;;;7.80;99.90;;;;;;5077086;28;20231;-76
2020/12/01 08:07:28;;;;;;;22.42;10.57;;;7.80;99.90;;;;;;5079674;28;20667;-75
2020/12/01 08:10:06;;;;;;;21.02;10.50;;;7.80;99.90;;;;;;5075451;28;20770;-78
2020/12/01 08:12:36;;;;;;;17.52;11.00;;;7.80;99.90;;;;;;5073568;28;20224;-76
2020/12/01 08:15:04;;;;;;;22.05;10.70;;;7.80;99.90;;;;;;5074154;28;20315;-74
2020/12/01 08:17:34;;;;;;;19.02;10.90;;;7.80;99.90;;;;;;5078936;28;20192;-75
2020/12/01 08:20:02;;;;;;;13.90;10.48;;;7.90;99.90;;;;;;5078043;28;20702;-75
2020/12/01 08:22:32;;;;;;;13.82;10.20;;;7.90;99.90;;;;;;5076058;28;20212;-75
2020/12/01 08:25:02;;;;;;;12.77;10.77;;;7.90;99.90;;;;;;5081801;28;20199;-77
2020/12/01 08:27:40;;;;;;;18.35;11.65;;;7.90;99.90;;;;;;5073668;28;20631;-75
2020/12/01 08:30:18;;;;;;;24.45;12.00;;;8.00;99.90;;;;;;5067573;28;20234;-76
2020/12/01 08:32:47;;;;;;;18.67;11.57;;;8.00;99.90;;;;;;5069157;28;20726;-76
2020/12/01 08:35:21;;;;;;;15.25;10.48;;;8.00;99.90;;;;;;5067560;28;20205;-75
2020/12/01 08:37:56;;;;;;;19.48;10.65;;;8.10;99.90;;;;;;5080241;28;20200;-75
2020/12/01 08:40:33;;;;;;;17.60;9.70;;;8.10;99.90;;;;;;5078277;28;20209;-75
2020/12/01 08:43:26;;;;;;;23.30;11.52;;;8.10;99.90;;;;;;5077240;28;20214;-75
2020/12/01 08:46:11;;;;;;;21.08;11.55;;;8.20;99.90;;;;;;5073934;28;20200;-76
2020/12/01 08:48:45;;;;;;;17.90;11.68;;;8.20;99.90;;;;;;5072156;28;20200;-74
2020/12/01 08:51:24;;;;;;;20.98;11.65;;;8.20;99.90;;;;;;5073551;28;20208;-76
2020/12/01 08:53:59;;;;;;;18.33;11.00;;;8.20;99.90;;;;;;5080892;28;20552;-75
2020/12/01 08:56:34;;;;;;;19.85;11.27;;;8.30;99.90;;;;;;5072659;28;20196;-76
2020/12/01 08:59:05;;;;;;;21.40;10.63;;;8.30;99.90;;;;;;5074391;28;20624;-75
2020/12/01 09:01:40;;;;;;;20.40;14.15;;;8.30;99.90;;;;;;5074583;28;21177;-75
2020/12/01 09:04:19;;;;;;;19.75;11.90;;;8.40;99.90;;;;;;5079416;28;20237;-74
2020/12/01 09:06:45;;;;;;;24.77;11.80;;;8.40;99.90;;;;;;5075249;28;20576;-76
2020/12/01 09:09:18;;;;;;;23.35;12.07;;;8.40;99.90;;;;;;5078607;28;20201;-78
2020/12/01 09:15:10;;;;;;;26.48;14.20;;;8.40;99.90;;;;;;5040578;28;20209;-75
2020/12/01 09:17:47;;;;;;;20.42;11.98;;;8.50;99.90;;;;;;5073823;28;20714;-77
2020/12/01 09:20:42;;;;;;;23.75;11.27;;;8.50;99.90;;;;;;5077638;28;20225;-75
2020/12/01 09:23:17;;;;;;;18.77;10.85;;;8.50;99.90;;;;;;5077880;28;20761;-75
2020/12/01 09:25:46;;;;;;;23.15;11.15;;;8.50;99.90;;;;;;5076902;28;20201;-77
2020/12/01 09:28:15;;;;;;;14.75;11.30;;;8.60;99.90;;;;;;5076460;28;20577;-75
2020/12/01 09:30:42;;;;;;;18.60;12.15;;;8.60;99.90;;;;;;5075283;28;20193;-76
2020/12/01 09:33:11;;;;;;;13.13;11.05;;;8.60;99.90;;;;;;5077349;28;20315;-75
2020/12/01 09:35:37;;;;;;;18.00;11.15;;;8.70;99.90;;;;;;5069104;28;20211;-75
2020/12/01 09:38:04;;;;;;;18.48;11.50;;;8.70;99.90;;;;;;5079748;28;20204;-75
2020/12/01 09:40:33;;;;;;;18.85;12.43;;;8.70;99.90;;;;;;5071018;28;20240;-78
2020/12/01 09:43:06;;;;;;;28.70;13.75;;;8.80;99.90;;;;;;5072980;28;20203;-76
2020/12/01 09:45:33;;;;;;;18.10;12.02;;;8.80;99.90;;;;;;5072844;28;20911;-74
2020/12/01 09:48:04;;;;;;;19.33;12.15;;;8.80;99.90;;;;;;5070496;28;20297;-76
2020/12/01 09:50:33;;;;;;;19.98;12.10;;;8.90;99.90;;;;;;5075005;28;20205;-75
2020/12/01 09:53:15;;;;;;;19.70;12.52;;;8.90;99.90;;;;;;5079549;28;20230;-77
2020/12/01 09:56:03;;;;;;;18.27;11.32;;;8.90;99.90;;;;;;5080253;28;20198;-75
2020/12/01 10:09:49;;;;;;;17.77;13.50;;;9.00;99.90;;;;;;5076898;28;20599;-77
2020/12/01 10:12:20;;;;;;;20.80;13.18;;;9.10;99.90;;;;;;5078789;28;20334;-75
2020/12/01 10:32:09;;;;;;;21.95;15.52;;;9.20;99.90;;;;;;5076242;28;20760;-77
2020/12/01 10:34:46;;;;;;;25.35;15.38;;;9.20;99.90;;;;;;5083970;28;20889;-76
2020/12/01 10:37:13;;;;;;;18.40;13.95;;;9.20;99.90;;;;;;5082976;28;20292;-76
2020/12/01 10:39:40;;;;;;;17.40;13.05;;;9.20;99.90;;;;;;5077179;28;20206;-77
2020/12/01 10:42:08;;;;;;;21.17;12.32;;;9.20;99.90;;;;;;5075532;28;20296;-75
2020/12/01 10:44:34;;;;;;;13.88;11.88;;;9.20;99.90;;;;;;5072883;28;20199;-75
2020/12/01 10:47:01;;;;;;;14.13;11.30;;;9.20;99.90;;;;;;5083298;28;20215;-75
2020/12/01 10:49:27;;;;;;;12.27;10.00;;;9.20;99.90;;;;;;5079525;28;20214;-77
2020/12/01 10:51:54;;;;;;;17.10;9.77;;;9.20;99.90;;;;;;5075646;28;20596;-75
2020/12/01 10:54:20;;;;;;;13.15;9.65;;;9.20;99.90;;;;;;5074968;28;20622;-74
2020/12/01 10:56:49;;;;;;;9.82;8.10;;;9.20;99.90;;;;;;5081936;28;20201;-77
2020/12/01 10:59:16;;;;;;;12.82;8.43;;;9.20;99.90;;;;;;5083632;28;20237;-75
2020/12/01 11:01:43;;;;;;;9.40;8.50;;;9.20;99.90;;;;;;5079581;28;20220;-77
2020/12/01 11:04:09;;;;;;;11.30;8.13;;;9.10;99.90;;;;;;5077471;28;20206;-75
2020/12/01 11:06:36;;;;;;;10.63;7.80;;;9.20;99.90;;;;;;5074790;28;20202;-75
2020/12/01 11:09:03;;;;;;;9.55;7.57;;;9.20;99.90;;;;;;5072079;28;20204;-77
2020/12/01 11:11:29;;;;;;;9.80;7.97;;;9.20;99.90;;;;;;5073652;28;20276;-74
2020/12/01 11:13:57;;;;;;;8.57;7.75;;;9.20;99.90;;;;;;5076187;28;20210;-75
2020/12/01 11:16:23;;;;;;;10.57;8.32;;;9.20;99.90;;;;;;5068428;28;20209;-75
2020/12/01 11:18:49;;;;;;;9.65;7.50;;;9.10;99.90;;;;;;5075571;28;20564;-75
2020/12/01 11:21:16;;;;;;;9.93;8.45;;;9.10;99.90;;;;;;5077749;28;20227;-75
2020/12/01 11:23:42;;;;;;;13.02;7.70;;;9.20;99.90;;;;;;5070703;28;20204;-76
2020/12/01 11:26:12;;;;;;;13.55;8.10;;;9.20;99.90;;;;;;5080941;28;20211;-75
2020/12/01 11:28:38;;;;;;;10.85;6.80;;;9.10;99.90;;;;;;5073115;28;20233;-75
2020/12/01 11:31:06;;;;;;;9.18;7.95;;;9.10;99.90;;;;;;5074210;28;20205;-74
2020/12/01 11:33:33;;;;;;;13.25;8.15;;;9.10;99.90;;;;;;5075642;28;20231;-74
2020/12/01 11:35:59;;;;;;;9.57;7.47;;;9.10;99.90;;;;;;5077838;28;20601;-74
2020/12/01 11:38:26;;;;;;;15.23;6.25;;;9.10;99.90;;;;;;5072156;28;20698;-73
2020/12/01 11:40:52;;;;;;;15.90;6.20;;;9.10;99.90;;;;;;5070215;28;20248;-77
2020/12/01 11:43:18;;;;;;;9.40;6.57;;;9.10;99.90;;;;;;5079879;28;20292;-75
2020/12/01 11:45:45;;;;;;;6.53;5.82;;;9.10;99.90;;;;;;5075572;28;20205;-75
2020/12/01 11:48:12;;;;;;;8.57;5.90;;;9.10;99.90;;;;;;5074814;28;20724;-75
2020/12/01 11:50:38;;;;;;;8.23;5.60;;;9.10;99.90;;;;;;5076649;28;20204;-77
2020/12/01 11:53:05;;;;;;;5.38;4.85;;;9.10;99.90;;;;;;5075666;28;20234;-76
2020/12/01 11:55:31;;;;;;;15.05;4.40;;;9.10;99.90;;;;;;5079262;28;20266;-73
2020/12/01 11:57:57;;;;;;;12.55;5.07;;;9.10;99.90;;;;;;5078488;28;20201;-75
2020/12/01 12:00:26;;;;;;;12.27;4.90;;;9.10;99.90;;;;;;5075263;28;20210;-75
2020/12/01 12:02:52;;;;;;;12.85;4.97;;;9.10;99.90;;;;;;5074273;28;20229;-75
2020/12/01 12:05:20;;;;;;;9.65;4.65;;;9.20;99.90;;;;;;5081517;28;20233;-76
2020/12/01 12:07:46;;;;;;;20.48;4.40;;;9.20;99.90;;;;;;5082125;28;20234;-75
2020/12/01 12:10:12;;;;;;;6.40;4.28;;;9.20;99.90;;;;;;5081969;28;20197;-75
2020/12/01 12:12:39;;;;;;;8.88;5.10;;;9.10;99.90;;;;;;5074957;28;20309;-75
2020/12/01 12:15:06;;;;;;;5.88;4.07;;;9.20;99.90;;;;;;5075857;28;20207;-77
2020/12/01 12:17:32;;;;;;;9.45;4.00;;;9.20;99.90;;;;;;5079274;28;20203;-75
2020/12/01 12:19:59;;;;;;;9.68;4.40;;;9.20;99.90;;;;;;5076227;28;20292;-75
2020/12/01 12:22:26;;;;;;;10.90;4.80;;;9.20;99.90;;;;;;5072063;28;20207;-78
2020/12/01 12:24:52;;;;;;;13.30;4.20;;;9.20;99.90;;;;;;5078620;28;20209;-77
2020/12/01 12:27:18;;;;;;;13.90;5.13;;;9.10;99.90;;;;;;5075995;28;20560;-77
2020/12/01 12:29:45;;;;;;;18.63;11.00;;;9.10;99.90;;;;;;5077084;28;20684;-75
2020/12/01 12:32:11;;;;;;;24.55;16.58;;;9.20;99.90;;;;;;5082835;28;20225;-75
2020/12/01 12:34:38;;;;;;;10.27;4.82;;;9.20;99.90;;;;;;5077706;28;20196;-74
2020/12/01 12:37:04;;;;;;;17.08;5.00;;;9.20;99.90;;;;;;5074361;28;20199;-75
2020/12/01 12:39:31;;;;;;;10.10;4.68;;;9.20;99.90;;;;;;5073435;28;20202;-77
2020/12/01 12:41:58;;;;;;;12.57;5.50;;;9.20;99.90;;;;;;5075758;28;20204;-74
2020/12/01 12:44:24;;;;;;;10.18;4.78;;;9.20;99.90;;;;;;5075213;28;20198;-76
2020/12/01 12:46:50;;;;;;;7.70;4.10;;;9.20;99.90;;;;;;5075083;28;20565;-74
2020/12/01 12:49:17;;;;;;;11.05;4.30;;;9.20;99.90;;;;;;5079497;28;20206;-74
2020/12/01 12:51:43;;;;;;;12.90;4.45;;;9.20;99.90;;;;;;5076579;28;20216;-75
2020/12/01 12:54:09;;;;;;;9.55;4.45;;;9.20;99.90;;;;;;5073946;28;20239;-75
2020/12/01 12:56:36;;;;;;;25.10;6.13;;;9.20;99.90;;;;;;5070609;28;20195;-75
2020/12/01 12:59:03;;;;;;;10.45;3.88;;;9.20;99.90;;;;;;5070591;28;20209;-75
2020/12/01 13:01:29;;;;;;;16.13;5.50;;;9.10;99.90;;;;;;5080605;28;20210;-73
2020/12/01 13:03:56;;;;;;;12.20;5.32;;;9.20;99.90;;;;;;5079230;28;20248;-74
2020/12/01 13:06:22;;;;;;;15.90;6.03;;;9.20;99.90;;;;;;5073707;28;20198;-74
2020/12/01 13:08:48;;;;;;;16.35;7.07;;;9.10;99.90;;;;;;5073178;28;20198;-78
2020/12/01 13:11:16;;;;;;;19.55;6.32;;;9.20;99.90;;;;;;5077729;28;20237;-74
2020/12/01 13:13:43;;;;;;;13.80;5.35;;;9.10;99.90;;;;;;5076318;28;21115;-74
2020/12/01 13:16:10;;;;;;;23.13;7.38;;;9.10;99.90;;;;;;5073529;28;20209;-74
2020/12/01 13:18:36;;;;;;;13.07;5.10;;;9.10;99.90;;;;;;5078217;28;20223;-74
2020/12/01 13:21:03;;;;;;;21.88;6.50;;;9.10;99.90;;;;;;5074939;28;20207;-75
2020/12/01 13:23:29;;;;;;;20.08;4.28;;;9.10;99.90;;;;;;5070328;28;20203;-75
2020/12/01 13:25:55;;;;;;;15.90;7.40;;;9.10;99.90;;;;;;5074497;28;20542;-76
2020/12/01 13:28:22;;;;;;;10.50;5.28;;;9.10;99.90;;;;;;5078996;28;20227;-75
2020/12/01 13:30:49;;;;;;;24.13;5.85;;;9.10;99.90;;;;;;5074045;28;20264;-75
2020/12/01 13:33:15;;;;;;;9.93;5.05;;;9.10;99.90;;;;;;5084379;28;20222;-76